Tropical Cyclones
[Index]
Main Index Home Page Stock Weather Photos Extreme Storms Discussion Storm News and Storm Chasing Reports Tropical Cyclones / Hurricanes / Typhoons Weather Data and Links Wild Fires / Bushfires Weather Observation Techniques Weather Picture Catalogue Tornado Pictures and Reports Stock Video Footage and DVDs for sale
Season 1982-1983 Tropical Cyclone NISHA-ORAMA Track Map
Season 1982-1983 Summaries: [BoM-AU] [JTWC-AU] [JTWC-SIO] [JTWC-SPAC] [JTWC-SH]
<<- Previous TC | JTWC 1982-1983 Season | Next TC ->>

click for intensity scale information  Lat/long Grid: Show Hide

 Date Labels: Show Hide

Joint Typhoon Warning Centre Cyclone Data

Name: NISHA-ORAMA

20 Feb 1983 12:00 UTC to 28 Feb 1983 12:00 UTC

    date/time    lat    long     hPa   cat  kts
1983-02-20 12   12.8   142.7W                 25          
1983-02-20 18   13.0   142.7W                 28          
1983-02-21 00   13.4   142.7W                 30          
1983-02-21 06   13.7   142.7W                 30          
1983-02-21 12   14.0   142.7W                 30          
1983-02-21 18   14.2   142.7W                 31          
1983-02-22 00   14.5   143.0W                 35          
1983-02-22 06   14.6   143.3W                 38          
1983-02-22 12   14.7   143.8W           1     45          
1983-02-22 18   14.7   144.4W           2     55          
1983-02-23 00   14.8   145.1W           2     65          
1983-02-23 06   14.7   145.6W           3     72          
1983-02-23 12   14.9   146.1W           3     80          
1983-02-23 18   15.2   146.4W           3     87          
1983-02-24 00   15.5   146.7W           3     95          
1983-02-24 06   15.8   146.8W           4    100          
1983-02-24 12   16.1   146.8W           4    100          
1983-02-24 18   16.4   146.7W           3     97          
1983-02-25 00   16.7   146.6W           3     95          
1983-02-25 06   17.0   146.4W           3     92          
1983-02-25 12   17.3   146.2W           3     90          
1983-02-25 18   17.6   145.9W           3     87          
1983-02-26 00   18.1   145.7W           3     85          
1983-02-26 06   18.7   145.0W           3     82          
1983-02-26 12   19.6   144.3W           3     80          
1983-02-26 18   20.4   143.5W           3     77          
1983-02-27 00   21.4   142.7W           3     75          
1983-02-27 06   22.9   141.5W           2     71          
1983-02-27 12   24.9   140.4W           2     65          
1983-02-27 18   27.1   139.2W           1     53          
1983-02-28 00   29.6   138.2W           1     39          
1983-02-28 06   32.8   137.4W                 31          
1983-02-28 12   36.5   137.0W                 25          
Winds are 1-min average.

Tropical cyclone tracks developed by Michael Bath using data from the Joint Typhoon Warning Centre Best Tracks and Google Maps.


[Australian Severe Weather index] [Copyright Notice] [Email Contacts] [Search This Site] [Privacy Policy]
Document: tropical_cyclone_nisha-orama.htm Updated: 18 September 2016